sensor_id;sensor_type;location;lat;lon;timestamp;P1;durP1;ratioP1;P2;durP2;ratioP2
13834;SDS011;6988;52.614;13.500;2023-02-28T00:03:27;5.23;;;3.00;;
13834;SDS011;6988;52.614;13.500;2023-02-28T00:08:19;5.10;;;2.90;;
13834;SDS011;6988;52.614;13.500;2023-02-28T00:13:10;4.70;;;3.17;;
13834;SDS011;6988;52.614;13.500;2023-02-28T00:18:03;5.57;;;3.30;;
13834;SDS011;6988;52.614;13.500;2023-02-28T00:22:56;5.67;;;2.67;;
13834;SDS011;6988;52.614;13.500;2023-02-28T00:27:48;6.03;;;2.90;;
13834;SDS011;6988;52.614;13.500;2023-02-28T00:32:40;5.27;;;3.20;;
13834;SDS011;6988;52.614;13.500;2023-02-28T00:37:33;5.37;;;3.40;;
13834;SDS011;6988;52.614;13.500;2023-02-28T00:42:26;5.80;;;3.10;;
13834;SDS011;6988;52.614;13.500;2023-02-28T00:47:18;6.20;;;3.37;;
13834;SDS011;6988;52.614;13.500;2023-02-28T00:52:10;5.47;;;3.00;;
13834;SDS011;6988;52.614;13.500;2023-02-28T00:57:02;5.23;;;3.37;;
13834;SDS011;6988;52.614;13.500;2023-02-28T01:01:57;7.90;;;3.40;;
13834;SDS011;6988;52.614;13.500;2023-02-28T01:06:49;6.53;;;3.60;;
13834;SDS011;6988;52.614;13.500;2023-02-28T01:11:41;4.70;;;3.27;;
13834;SDS011;6988;52.614;13.500;2023-02-28T01:16:34;5.43;;;3.40;;
13834;SDS011;6988;52.614;13.500;2023-02-28T01:21:28;4.93;;;3.10;;
13834;SDS011;6988;52.614;13.500;2023-02-28T01:26:20;4.03;;;2.90;;
13834;SDS011;6988;52.614;13.500;2023-02-28T01:31:14;5.83;;;2.83;;
13834;SDS011;6988;52.614;13.500;2023-02-28T01:36:07;3.63;;;2.87;;
13834;SDS011;6988;52.614;13.500;2023-02-28T01:41:04;5.47;;;3.23;;
13834;SDS011;6988;52.614;13.500;2023-02-28T01:45:58;4.70;;;2.80;;
13834;SDS011;6988;52.614;13.500;2023-02-28T01:50:50;5.57;;;3.40;;
13834;SDS011;6988;52.614;13.500;2023-02-28T01:55:44;6.10;;;3.40;;
13834;SDS011;6988;52.614;13.500;2023-02-28T02:00:44;4.00;;;2.80;;
13834;SDS011;6988;52.614;13.500;2023-02-28T02:05:37;5.83;;;3.47;;
13834;SDS011;6988;52.614;13.500;2023-02-28T02:10:32;5.40;;;3.50;;
13834;SDS011;6988;52.614;13.500;2023-02-28T02:15:31;6.77;;;3.90;;
13834;SDS011;6988;52.614;13.500;2023-02-28T02:20:41;6.60;;;3.10;;
13834;SDS011;6988;52.614;13.500;2023-02-28T02:26:06;5.37;;;3.47;;
13834;SDS011;6988;52.614;13.500;2023-02-28T02:31:41;5.97;;;3.63;;
13834;SDS011;6988;52.614;13.500;2023-02-28T02:37:08;5.80;;;3.50;;
13834;SDS011;6988;52.614;13.500;2023-02-28T02:42:11;4.83;;;3.33;;
13834;SDS011;6988;52.614;13.500;2023-02-28T02:47:09;6.23;;;3.80;;
13834;SDS011;6988;52.614;13.500;2023-02-28T02:52:08;6.60;;;3.43;;
13834;SDS011;6988;52.614;13.500;2023-02-28T02:57:06;5.93;;;3.60;;
13834;SDS011;6988;52.614;13.500;2023-02-28T03:02:05;7.00;;;4.10;;
13834;SDS011;6988;52.614;13.500;2023-02-28T03:07:02;6.40;;;4.00;;
13834;SDS011;6988;52.614;13.500;2023-02-28T03:11:55;7.67;;;3.40;;
13834;SDS011;6988;52.614;13.500;2023-02-28T03:16:50;6.23;;;3.87;;
13834;SDS011;6988;52.614;13.500;2023-02-28T03:22:01;5.77;;;4.03;;
13834;SDS011;6988;52.614;13.500;2023-02-28T03:27:08;6.17;;;4.03;;
13834;SDS011;6988;52.614;13.500;2023-02-28T03:32:09;6.10;;;4.07;;
13834;SDS011;6988;52.614;13.500;2023-02-28T03:37:13;7.13;;;3.90;;
13834;SDS011;6988;52.614;13.500;2023-02-28T03:42:13;6.13;;;3.97;;
13834;SDS011;6988;52.614;13.500;2023-02-28T03:47:10;7.40;;;4.37;;
13834;SDS011;6988;52.614;13.500;2023-02-28T03:52:05;8.13;;;4.17;;
13834;SDS011;6988;52.614;13.500;2023-02-28T03:57:01;6.47;;;4.23;;
13834;SDS011;6988;52.614;13.500;2023-02-28T04:02:03;7.37;;;4.73;;
13834;SDS011;6988;52.614;13.500;2023-02-28T04:07:00;7.90;;;4.70;;
13834;SDS011;6988;52.614;13.500;2023-02-28T04:11:54;7.07;;;4.63;;
13834;SDS011;6988;52.614;13.500;2023-02-28T04:16:46;6.97;;;4.67;;
13834;SDS011;6988;52.614;13.500;2023-02-28T04:21:41;7.57;;;5.23;;
13834;SDS011;6988;52.614;13.500;2023-02-28T04:26:36;9.47;;;5.40;;
13834;SDS011;6988;52.614;13.500;2023-02-28T04:31:28;8.50;;;5.37;;
13834;SDS011;6988;52.614;13.500;2023-02-28T04:36:19;9.23;;;5.83;;
13834;SDS011;6988;52.614;13.500;2023-02-28T04:41:14;8.00;;;5.40;;
13834;SDS011;6988;52.614;13.500;2023-02-28T04:46:06;8.33;;;5.17;;
13834;SDS011;6988;52.614;13.500;2023-02-28T04:51:00;8.03;;;4.83;;
13834;SDS011;6988;52.614;13.500;2023-02-28T04:55:53;8.60;;;5.90;;
13834;SDS011;6988;52.614;13.500;2023-02-28T05:00:46;7.50;;;5.37;;
13834;SDS011;6988;52.614;13.500;2023-02-28T05:05:38;9.50;;;6.23;;
13834;SDS011;6988;52.614;13.500;2023-02-28T05:10:29;10.33;;;6.27;;
13834;SDS011;6988;52.614;13.500;2023-02-28T05:15:22;10.77;;;6.00;;
13834;SDS011;6988;52.614;13.500;2023-02-28T05:20:15;8.47;;;5.60;;
13834;SDS011;6988;52.614;13.500;2023-02-28T05:25:08;8.60;;;6.03;;
13834;SDS011;6988;52.614;13.500;2023-02-28T05:30:05;9.63;;;5.70;;
13834;SDS011;6988;52.614;13.500;2023-02-28T05:35:00;9.57;;;6.57;;
13834;SDS011;6988;52.614;13.500;2023-02-28T05:39:53;13.10;;;6.50;;
13834;SDS011;6988;52.614;13.500;2023-02-28T05:44:45;10.33;;;6.40;;
13834;SDS011;6988;52.614;13.500;2023-02-28T05:49:38;9.77;;;6.53;;
13834;SDS011;6988;52.614;13.500;2023-02-28T05:54:29;9.30;;;6.67;;
13834;SDS011;6988;52.614;13.500;2023-02-28T05:59:23;9.77;;;6.17;;
13834;SDS011;6988;52.614;13.500;2023-02-28T06:04:16;10.17;;;6.40;;
13834;SDS011;6988;52.614;13.500;2023-02-28T06:09:10;10.73;;;6.93;;
13834;SDS011;6988;52.614;13.500;2023-02-28T06:14:02;9.70;;;6.77;;
13834;SDS011;6988;52.614;13.500;2023-02-28T06:18:58;10.13;;;7.47;;
13834;SDS011;6988;52.614;13.500;2023-02-28T06:23:52;12.67;;;7.87;;
13834;SDS011;6988;52.614;13.500;2023-02-28T06:28:44;11.10;;;8.47;;
13834;SDS011;6988;52.614;13.500;2023-02-28T06:33:37;10.77;;;8.27;;
13834;SDS011;6988;52.614;13.500;2023-02-28T06:38:32;12.47;;;8.80;;
13834;SDS011;6988;52.614;13.500;2023-02-28T06:43:27;14.23;;;10.10;;
13834;SDS011;6988;52.614;13.500;2023-02-28T06:48:22;14.40;;;10.33;;
13834;SDS011;6988;52.614;13.500;2023-02-28T06:53:14;13.77;;;9.03;;
13834;SDS011;6988;52.614;13.500;2023-02-28T06:58:08;16.23;;;9.60;;
13834;SDS011;6988;52.614;13.500;2023-02-28T07:03:06;14.10;;;8.93;;
13834;SDS011;6988;52.614;13.500;2023-02-28T07:07:57;13.53;;;8.93;;
13834;SDS011;6988;52.614;13.500;2023-02-28T07:12:49;11.37;;;8.37;;
13834;SDS011;6988;52.614;13.500;2023-02-28T07:17:43;13.10;;;9.10;;
13834;SDS011;6988;52.614;13.500;2023-02-28T07:22:35;13.17;;;8.37;;
13834;SDS011;6988;52.614;13.500;2023-02-28T07:27:27;13.53;;;8.40;;
13834;SDS011;6988;52.614;13.500;2023-02-28T07:32:19;11.73;;;8.17;;
13834;SDS011;6988;52.614;13.500;2023-02-28T07:37:13;13.33;;;7.97;;
13834;SDS011;6988;52.614;13.500;2023-02-28T07:42:04;14.13;;;7.60;;
13834;SDS011;6988;52.614;13.500;2023-02-28T07:47:00;10.83;;;7.23;;
13834;SDS011;6988;52.614;13.500;2023-02-28T07:51:52;11.03;;;7.13;;
13834;SDS011;6988;52.614;13.500;2023-02-28T07:56:45;11.30;;;6.60;;
13834;SDS011;6988;52.614;13.500;2023-02-28T08:01:37;11.80;;;6.37;;
13834;SDS011;6988;52.614;13.500;2023-02-28T08:06:32;10.37;;;5.70;;
13834;SDS011;6988;52.614;13.500;2023-02-28T08:11:24;8.63;;;5.37;;
13834;SDS011;6988;52.614;13.500;2023-02-28T08:16:17;8.17;;;5.53;;
13834;SDS011;6988;52.614;13.500;2023-02-28T08:21:12;9.13;;;6.00;;
13834;SDS011;6988;52.614;13.500;2023-02-28T08:26:03;9.87;;;6.77;;
13834;SDS011;6988;52.614;13.500;2023-02-28T08:30:55;7.43;;;5.40;;
13834;SDS011;6988;52.614;13.500;2023-02-28T08:35:49;6.33;;;3.60;;
13834;SDS011;6988;52.614;13.500;2023-02-28T08:40:44;8.37;;;4.20;;
13834;SDS011;6988;52.614;13.500;2023-02-28T08:45:36;6.87;;;3.63;;
13834;SDS011;6988;52.614;13.500;2023-02-28T08:50:28;6.77;;;2.83;;
13834;SDS011;6988;52.614;13.500;2023-02-28T08:55:21;3.73;;;2.70;;
13834;SDS011;6988;52.614;13.500;2023-02-28T09:00:13;5.50;;;2.47;;
13834;SDS011;6988;52.614;13.500;2023-02-28T09:05:05;3.33;;;2.13;;
13834;SDS011;6988;52.614;13.500;2023-02-28T09:09:59;3.57;;;1.80;;
13834;SDS011;6988;52.614;13.500;2023-02-28T09:14:52;3.10;;;1.40;;
13834;SDS011;6988;52.614;13.500;2023-02-28T09:19:44;2.20;;;1.47;;
13834;SDS011;6988;52.614;13.500;2023-02-28T09:24:38;1.60;;;1.40;;
13834;SDS011;6988;52.614;13.500;2023-02-28T09:29:30;3.07;;;1.37;;
13834;SDS011;6988;52.614;13.500;2023-02-28T09:34:25;4.27;;;1.80;;
13834;SDS011;6988;52.614;13.500;2023-02-28T09:39:17;2.50;;;1.57;;
13834;SDS011;6988;52.614;13.500;2023-02-28T09:44:09;3.80;;;1.80;;
13834;SDS011;6988;52.614;13.500;2023-02-28T09:49:12;3.80;;;1.60;;
13834;SDS011;6988;52.614;13.500;2023-02-28T09:54:10;2.53;;;1.57;;
13834;SDS011;6988;52.614;13.500;2023-02-28T09:59:10;3.10;;;1.23;;
13834;SDS011;6988;52.614;13.500;2023-02-28T10:04:24;5.17;;;1.70;;
13834;SDS011;6988;52.614;13.500;2023-02-28T10:09:34;2.60;;;1.50;;
13834;SDS011;6988;52.614;13.500;2023-02-28T10:14:28;2.43;;;1.30;;
13834;SDS011;6988;52.614;13.500;2023-02-28T10:19:25;2.00;;;1.07;;
13834;SDS011;6988;52.614;13.500;2023-02-28T10:24:26;2.07;;;1.20;;
13834;SDS011;6988;52.614;13.500;2023-02-28T10:29:24;4.10;;;1.10;;
13834;SDS011;6988;52.614;13.500;2023-02-28T10:34:17;2.37;;;1.20;;
13834;SDS011;6988;52.614;13.500;2023-02-28T10:44:30;2.27;;;1.40;;
13834;SDS011;6988;52.614;13.500;2023-02-28T10:49:22;2.53;;;1.43;;
13834;SDS011;6988;52.614;13.500;2023-02-28T10:54:18;2.50;;;1.60;;
13834;SDS011;6988;52.614;13.500;2023-02-28T10:59:27;2.93;;;1.57;;
13834;SDS011;6988;52.614;13.500;2023-02-28T11:04:31;2.83;;;1.63;;
13834;SDS011;6988;52.614;13.500;2023-02-28T11:09:30;3.47;;;1.87;;
13834;SDS011;6988;52.614;13.500;2023-02-28T11:14:26;3.07;;;1.97;;
13834;SDS011;6988;52.614;13.500;2023-02-28T11:19:22;2.67;;;1.70;;
13834;SDS011;6988;52.614;13.500;2023-02-28T11:24:21;3.33;;;1.87;;
13834;SDS011;6988;52.614;13.500;2023-02-28T11:29:18;3.67;;;2.00;;
13834;SDS011;6988;52.614;13.500;2023-02-28T11:34:24;2.60;;;1.67;;
13834;SDS011;6988;52.614;13.500;2023-02-28T11:39:18;2.87;;;1.80;;
13834;SDS011;6988;52.614;13.500;2023-02-28T11:44:17;2.50;;;1.67;;
13834;SDS011;6988;52.614;13.500;2023-02-28T11:49:32;3.00;;;1.67;;
13834;SDS011;6988;52.614;13.500;2023-02-28T11:54:42;3.90;;;1.80;;
13834;SDS011;6988;52.614;13.500;2023-02-28T12:00:00;3.27;;;1.97;;
13834;SDS011;6988;52.614;13.500;2023-02-28T12:05:13;2.63;;;1.87;;
13834;SDS011;6988;52.614;13.500;2023-02-28T12:10:20;3.87;;;1.87;;
13834;SDS011;6988;52.614;13.500;2023-02-28T12:15:20;3.77;;;1.83;;
13834;SDS011;6988;52.614;13.500;2023-02-28T12:20:35;2.63;;;1.87;;
13834;SDS011;6988;52.614;13.500;2023-02-28T12:25:38;4.13;;;2.10;;
13834;SDS011;6988;52.614;13.500;2023-02-28T12:30:48;3.10;;;1.77;;
13834;SDS011;6988;52.614;13.500;2023-02-28T12:35:49;2.83;;;1.80;;
13834;SDS011;6988;52.614;13.500;2023-02-28T12:40:47;3.87;;;2.03;;
13834;SDS011;6988;52.614;13.500;2023-02-28T12:45:45;3.40;;;2.17;;
13834;SDS011;6988;52.614;13.500;2023-02-28T12:50:43;3.47;;;2.07;;
13834;SDS011;6988;52.614;13.500;2023-02-28T12:55:38;4.27;;;2.37;;
13834;SDS011;6988;52.614;13.500;2023-02-28T13:00:42;3.67;;;2.20;;
13834;SDS011;6988;52.614;13.500;2023-02-28T13:11:29;5.50;;;2.20;;
13834;SDS011;6988;52.614;13.500;2023-02-28T13:16:42;3.27;;;2.00;;
13834;SDS011;6988;52.614;13.500;2023-02-28T13:21:46;3.20;;;2.10;;
13834;SDS011;6988;52.614;13.500;2023-02-28T13:37:34;4.47;;;2.20;;
13834;SDS011;6988;52.614;13.500;2023-02-28T13:42:34;5.10;;;2.20;;
13834;SDS011;6988;52.614;13.500;2023-02-28T13:47:28;3.33;;;2.37;;
13834;SDS011;6988;52.614;13.500;2023-02-28T13:52:23;3.57;;;1.90;;
13834;SDS011;6988;52.614;13.500;2023-02-28T13:57:20;3.23;;;1.80;;
13834;SDS011;6988;52.614;13.500;2023-02-28T14:02:40;4.77;;;2.07;;
13834;SDS011;6988;52.614;13.500;2023-02-28T14:07:59;4.13;;;2.10;;
13834;SDS011;6988;52.614;13.500;2023-02-28T14:12:59;3.57;;;2.03;;
13834;SDS011;6988;52.614;13.500;2023-02-28T14:17:55;3.90;;;2.30;;
13834;SDS011;6988;52.614;13.500;2023-02-28T14:22:52;3.73;;;2.40;;
13834;SDS011;6988;52.614;13.500;2023-02-28T14:27:58;3.47;;;1.90;;
13834;SDS011;6988;52.614;13.500;2023-02-28T14:33:24;3.43;;;2.10;;
13834;SDS011;6988;52.614;13.500;2023-02-28T14:38:30;5.70;;;2.50;;
13834;SDS011;6988;52.614;13.500;2023-02-28T14:43:28;3.17;;;2.27;;
13834;SDS011;6988;52.614;13.500;2023-02-28T14:48:20;3.37;;;2.47;;
13834;SDS011;6988;52.614;13.500;2023-02-28T14:53:17;3.13;;;2.50;;
13834;SDS011;6988;52.614;13.500;2023-02-28T14:58:18;5.10;;;3.00;;
13834;SDS011;6988;52.614;13.500;2023-02-28T15:03:18;4.30;;;2.60;;
13834;SDS011;6988;52.614;13.500;2023-02-28T15:08:14;5.00;;;2.70;;
13834;SDS011;6988;52.614;13.500;2023-02-28T15:13:10;3.97;;;2.63;;
13834;SDS011;6988;52.614;13.500;2023-02-28T15:18:05;25.17;;;3.50;;
13834;SDS011;6988;52.614;13.500;2023-02-28T15:23:04;4.73;;;2.83;;
13834;SDS011;6988;52.614;13.500;2023-02-28T15:27:57;5.47;;;2.77;;
13834;SDS011;6988;52.614;13.500;2023-02-28T15:33:03;4.60;;;2.70;;
13834;SDS011;6988;52.614;13.500;2023-02-28T15:38:13;3.83;;;2.70;;
13834;SDS011;6988;52.614;13.500;2023-02-28T15:43:14;3.83;;;2.87;;
13834;SDS011;6988;52.614;13.500;2023-02-28T15:48:14;4.13;;;2.20;;
13834;SDS011;6988;52.614;13.500;2023-02-28T15:53:13;5.93;;;2.90;;
13834;SDS011;6988;52.614;13.500;2023-02-28T15:58:08;3.57;;;2.33;;
13834;SDS011;6988;52.614;13.500;2023-02-28T16:08:25;4.70;;;2.53;;
13834;SDS011;6988;52.614;13.500;2023-02-28T16:13:17;3.97;;;2.60;;
13834;SDS011;6988;52.614;13.500;2023-02-28T16:18:09;4.57;;;2.27;;
13834;SDS011;6988;52.614;13.500;2023-02-28T16:23:04;3.90;;;2.40;;
13834;SDS011;6988;52.614;13.500;2023-02-28T16:27:56;4.10;;;2.67;;
13834;SDS011;6988;52.614;13.500;2023-02-28T16:32:50;3.93;;;2.50;;
13834;SDS011;6988;52.614;13.500;2023-02-28T16:37:45;3.90;;;2.70;;
13834;SDS011;6988;52.614;13.500;2023-02-28T16:42:38;5.00;;;2.80;;
13834;SDS011;6988;52.614;13.500;2023-02-28T16:47:31;5.43;;;2.50;;
13834;SDS011;6988;52.614;13.500;2023-02-28T16:52:23;5.27;;;2.37;;
13834;SDS011;6988;52.614;13.500;2023-02-28T16:57:17;5.40;;;2.60;;
13834;SDS011;6988;52.614;13.500;2023-02-28T17:02:15;4.47;;;2.90;;
13834;SDS011;6988;52.614;13.500;2023-02-28T17:07:09;5.77;;;3.00;;
13834;SDS011;6988;52.614;13.500;2023-02-28T17:12:06;6.50;;;3.20;;
13834;SDS011;6988;52.614;13.500;2023-02-28T17:16:58;6.77;;;3.30;;
13834;SDS011;6988;52.614;13.500;2023-02-28T17:21:51;5.80;;;3.30;;
13834;SDS011;6988;52.614;13.500;2023-02-28T17:26:43;5.40;;;3.37;;
13834;SDS011;6988;52.614;13.500;2023-02-28T17:31:35;6.47;;;3.80;;
13834;SDS011;6988;52.614;13.500;2023-02-28T17:36:28;6.03;;;3.57;;
13834;SDS011;6988;52.614;13.500;2023-02-28T17:41:21;7.87;;;4.23;;
13834;SDS011;6988;52.614;13.500;2023-02-28T17:46:14;4.60;;;3.63;;
13834;SDS011;6988;52.614;13.500;2023-02-28T17:51:10;7.47;;;3.90;;
13834;SDS011;6988;52.614;13.500;2023-02-28T17:56:04;6.37;;;4.20;;
13834;SDS011;6988;52.614;13.500;2023-02-28T18:01:03;8.60;;;4.70;;
13834;SDS011;6988;52.614;13.500;2023-02-28T18:05:55;7.73;;;4.70;;
13834;SDS011;6988;52.614;13.500;2023-02-28T18:10:47;9.10;;;4.87;;
13834;SDS011;6988;52.614;13.500;2023-02-28T18:15:39;6.90;;;4.97;;
13834;SDS011;6988;52.614;13.500;2023-02-28T18:20:32;8.53;;;5.47;;
13834;SDS011;6988;52.614;13.500;2023-02-28T18:25:24;10.07;;;5.23;;
13834;SDS011;6988;52.614;13.500;2023-02-28T18:30:17;9.10;;;5.47;;
13834;SDS011;6988;52.614;13.500;2023-02-28T18:35:10;12.30;;;5.90;;
13834;SDS011;6988;52.614;13.500;2023-02-28T18:40:04;10.57;;;6.53;;
13834;SDS011;6988;52.614;13.500;2023-02-28T18:44:57;10.87;;;7.00;;
13834;SDS011;6988;52.614;13.500;2023-02-28T18:49:49;11.43;;;7.30;;
13834;SDS011;6988;52.614;13.500;2023-02-28T18:54:40;13.07;;;8.97;;
13834;SDS011;6988;52.614;13.500;2023-02-28T18:59:33;14.63;;;9.57;;
13834;SDS011;6988;52.614;13.500;2023-02-28T19:04:25;19.80;;;12.67;;
13834;SDS011;6988;52.614;13.500;2023-02-28T19:09:17;13.57;;;9.40;;
13834;SDS011;6988;52.614;13.500;2023-02-28T19:14:08;14.70;;;9.10;;
13834;SDS011;6988;52.614;13.500;2023-02-28T19:19:02;16.60;;;10.47;;
13834;SDS011;6988;52.614;13.500;2023-02-28T19:23:53;15.67;;;10.13;;
13834;SDS011;6988;52.614;13.500;2023-02-28T19:28:45;14.33;;;10.23;;
13834;SDS011;6988;52.614;13.500;2023-02-28T19:33:38;13.87;;;9.93;;
13834;SDS011;6988;52.614;13.500;2023-02-28T19:38:31;19.93;;;10.60;;
13834;SDS011;6988;52.614;13.500;2023-02-28T19:43:23;17.43;;;11.13;;
13834;SDS011;6988;52.614;13.500;2023-02-28T19:48:15;22.60;;;15.23;;
13834;SDS011;6988;52.614;13.500;2023-02-28T19:53:06;28.10;;;18.53;;
13834;SDS011;6988;52.614;13.500;2023-02-28T19:57:59;23.23;;;16.07;;
13834;SDS011;6988;52.614;13.500;2023-02-28T20:02:51;21.90;;;14.67;;
13834;SDS011;6988;52.614;13.500;2023-02-28T20:07:43;18.97;;;13.20;;
13834;SDS011;6988;52.614;13.500;2023-02-28T20:12:34;21.40;;;14.80;;
13834;SDS011;6988;52.614;13.500;2023-02-28T20:17:28;19.07;;;14.87;;
13834;SDS011;6988;52.614;13.500;2023-02-28T20:22:20;23.17;;;16.37;;
13834;SDS011;6988;52.614;13.500;2023-02-28T20:27:12;26.47;;;17.40;;
13834;SDS011;6988;52.614;13.500;2023-02-28T20:32:03;26.63;;;18.40;;
13834;SDS011;6988;52.614;13.500;2023-02-28T20:36:58;29.07;;;20.47;;
13834;SDS011;6988;52.614;13.500;2023-02-28T20:41:50;29.57;;;19.93;;
13834;SDS011;6988;52.614;13.500;2023-02-28T20:46:42;35.27;;;23.13;;
13834;SDS011;6988;52.614;13.500;2023-02-28T20:51:33;36.50;;;24.07;;
13834;SDS011;6988;52.614;13.500;2023-02-28T20:56:30;35.10;;;23.80;;
13834;SDS011;6988;52.614;13.500;2023-02-28T21:01:22;38.40;;;24.00;;
13834;SDS011;6988;52.614;13.500;2023-02-28T21:06:16;35.60;;;23.43;;
13834;SDS011;6988;52.614;13.500;2023-02-28T21:11:11;38.80;;;24.73;;
13834;SDS011;6988;52.614;13.500;2023-02-28T21:16:08;48.60;;;32.03;;
13834;SDS011;6988;52.614;13.500;2023-02-28T21:21:03;60.77;;;35.47;;
13834;SDS011;6988;52.614;13.500;2023-02-28T21:26:01;62.87;;;37.97;;
13834;SDS011;6988;52.614;13.500;2023-02-28T21:30:58;54.83;;;34.90;;
13834;SDS011;6988;52.614;13.500;2023-02-28T21:35:53;54.47;;;33.87;;
13834;SDS011;6988;52.614;13.500;2023-02-28T21:40:52;44.97;;;29.43;;
13834;SDS011;6988;52.614;13.500;2023-02-28T21:45:43;44.43;;;27.37;;
13834;SDS011;6988;52.614;13.500;2023-02-28T21:50:35;36.77;;;24.67;;
13834;SDS011;6988;52.614;13.500;2023-02-28T21:55:28;41.30;;;26.73;;
13834;SDS011;6988;52.614;13.500;2023-02-28T22:00:20;39.60;;;26.57;;
13834;SDS011;6988;52.614;13.500;2023-02-28T22:05:12;37.33;;;25.93;;
13834;SDS011;6988;52.614;13.500;2023-02-28T22:10:04;36.13;;;24.87;;
13834;SDS011;6988;52.614;13.500;2023-02-28T22:14:58;38.33;;;25.27;;
13834;SDS011;6988;52.614;13.500;2023-02-28T22:19:50;35.80;;;25.60;;
13834;SDS011;6988;52.614;13.500;2023-02-28T22:24:41;34.60;;;24.90;;
13834;SDS011;6988;52.614;13.500;2023-02-28T22:29:33;42.87;;;28.37;;
13834;SDS011;6988;52.614;13.500;2023-02-28T22:34:26;42.20;;;28.07;;
13834;SDS011;6988;52.614;13.500;2023-02-28T22:39:18;38.50;;;25.93;;
13834;SDS011;6988;52.614;13.500;2023-02-28T22:44:10;37.73;;;26.33;;
13834;SDS011;6988;52.614;13.500;2023-02-28T23:04:58;36.33;;;25.40;;
13834;SDS011;6988;52.614;13.500;2023-02-28T23:09:50;35.87;;;25.10;;
13834;SDS011;6988;52.614;13.500;2023-02-28T23:14:43;35.53;;;25.93;;
13834;SDS011;6988;52.614;13.500;2023-02-28T23:19:35;35.00;;;25.80;;
13834;SDS011;6988;52.614;13.500;2023-02-28T23:24:30;32.23;;;24.70;;
13834;SDS011;6988;52.614;13.500;2023-02-28T23:29:25;33.53;;;24.23;;
13834;SDS011;6988;52.614;13.500;2023-02-28T23:34:17;31.43;;;24.60;;
13834;SDS011;6988;52.614;13.500;2023-02-28T23:39:15;32.67;;;24.50;;
13834;SDS011;6988;52.614;13.500;2023-02-28T23:44:10;35.00;;;24.10;;
13834;SDS011;6988;52.614;13.500;2023-02-28T23:49:05;32.00;;;23.43;;
13834;SDS011;6988;52.614;13.500;2023-02-28T23:53:57;34.47;;;23.93;;
13834;SDS011;6988;52.614;13.500;2023-02-28T23:58:53;33.00;;;23.63;;
